Have a Safe July 4th! 

Flight Track Log - Related Links

Times and Time Zones

All times are in EST time to prevent confusion due to time zone crossing. See the GJS3649 flight status page for this flight to view local times or setup timezone preferences in your user account.

Time Position Orientation Groundspeed Altitude Reporting Facility
EST Latitude Longitude Course Direction KTS MPH feet Rate Location/Type
Sun 12:53:39 PM 39.0483 -77.5000 47° Northeast 247 284 6,100  Level Washington Center
Sun 12:54:00 PM 39.2067 -77.1065 47° Northeast  Level Estimated
Sun 12:54:39 PM 39.1200 -77.4511 28° Northeast 269 310 8,700  Level Washington Center
Sun 12:55:00 PM 39.2929 -76.9881 47° Northeast  Level Estimated
Sun 12:55:40 PM 39.1672 -77.3506 59° Northeast 293 337 10,000  Level Washington Center
Sun 12:56:00 PM 39.3789 -76.8694 47° Northeast  Level Estimated
Sun 12:56:38 PM 39.1544 -77.2297 98° East 287 330 11,300  Level Washington Center
Sun 12:57:00 PM 39.4649 -76.7504 47° Northeast  Level Estimated
Sun 12:57:39 PM 39.1231 -77.0872 106° East 327 376 13,700  Level Washington Center
Sun 01:00:40 PM 39.1275 -76.6431 46° Northeast 408 470 20,100 1,983 Climbing Washington Center
Sun 01:01:38 PM 39.1353 -76.4828 86° East 429 494 21,600 972 Climbing Washington Center
Sun 01:03:39 PM 39.1622 -76.1403 44° Northeast 471 542 23,000 464 Climbing Washington Center
Sun 01:04:39 PM 39.1836 -75.9639 81° East 486 559 23,000 545 Level Washington Center
Sun 01:05:40 PM 39.2467 -75.8086 62° Northeast 486 559 24,100 1,140 Climbing Washington Center
Sun 01:06:00 PM 39.8467 -76.1003 46° Northeast  Level Estimated
Sun 01:06:40 PM 39.3467 -75.6800 45° Northeast 478 550 25,300  Level Washington Center
Sun 01:07:39 PM 39.4447 -75.5539 45° Northeast 487 560 26,400 1,066 Climbing Washington Center
Sun 01:09:57 PM 39.6686 -75.2608 45° Northeast 520 598 28,800 1,080 Climbing Boston Center
Sun 01:10:59 PM 39.7678 -75.1192 48° Northeast 526 605 30,000 1,181 Climbing Boston Center
Sun 01:12:04 PM 39.8856 -74.9525 47° Northeast 526 605 31,300 1,048 Climbing New York Center
Sun 01:13:05 PM 39.9928 -74.7975 48° Northeast 529 609 32,200 737 Climbing New York Center
Sun 01:15:03 PM 40.1783 -74.5403 47° Northeast 541 623 33,500 697 Climbing Boston Center
Sun 01:17:06 PM 40.4069 -74.2192 47° Northeast 549 632 35,000 750 Climbing Boston Center
Sun 01:18:07 PM 40.5117 -74.0733 47° Northeast 551 634 35,800 656 Climbing Boston Center
Sun 01:20:09 PM 40.7131 -73.7825 48° Northeast 546 628 37,000 393 Climbing Boston Center
Sun 01:21:10 PM 40.8169 -73.6328 47° Northeast 552 635 37,000  Level Boston Center
Sun 01:23:12 PM 40.9886 -73.3406 52° Northeast 554 638 37,000  Level Boston Center
Sun 01:26:16 PM 41.2914 -72.8208 52° Northeast 551 634 37,000  Level Boston Center
Sun 01:28:19 PM 41.4961 -72.4636 53° Northeast 549 632 37,000  Level Boston Center
Sun 01:29:20 PM 41.5794 -72.3181 53° Northeast 558 642 37,000  Level Boston Center
Sun 01:30:21 PM 41.6706 -72.1558 53° Northeast 552 635 37,000  Level Boston Center
Sun 01:31:22 PM 41.7628 -71.9933 53° Northeast 552 635 37,000  Level Boston Center
Sun 01:32:23 PM 41.8733 -71.7958 53° Northeast 556 640 37,000  Level Boston Center
Sun 01:33:24 PM 41.9644 -71.6303 53° Northeast 556 640 37,000 -424 Level Boston Center
Sun 01:35:27 PM 42.1497 -71.2967 57° Northeast 560 644 35,700 -1,761 Descending Boston Center
Sun 01:36:28 PM 42.2478 -71.1178 53° Northeast 558 642 31,600 -3,639 Descending Boston Center
Sun 01:37:29 PM 42.3522 -70.9728 46° Northeast 535 616 28,300 -2,754 Descending Boston Center
Sun 01:38:30 PM 42.4631 -70.8622 36° Northeast 500 575 26,000 -2,213 Descending Boston Center
Sun 01:39:31 PM 42.5617 -70.7611 37° Northeast 490 564 23,800 -2,459 Descending Boston Center
Sun 01:40:32 PM 42.6800 -70.6403 37° Northeast 484 557 21,000 -2,754 Descending Boston Center
Sun 01:41:33 PM 42.8050 -70.5614 25° Northeast 450 518 18,200 -2,508 Descending Boston Center
Sun 01:42:34 PM 42.9136 -70.4931 25° Northeast 437 503 15,900 -2,341 Descending Boston Center
Sun 01:43:36 PM 43.0161 -70.4264 25° Northeast 415 478 13,400 -1,886 Descending Boston Center
Sun 01:46:39 PM 43.2917 -70.3383 101° East 280 322 8,200 -1,721 Descending Boston Center
Sun 01:47:40 PM 43.3661 -70.3456 356° North 268 308 6,400 -1,475 Descending Boston Center
Sun 01:48:41 PM 43.4361 -70.3594 352° North 254 292 5,200 -1,115 Descending Boston Center
Sun 01:50:43 PM 43.5697 -70.3928 318° Northwest 225 259 3,000 -1,082 Descending Boston Center
Sun 01:51:44 PM 43.6203 -70.3947 358° North 188 216 1,900 -1,082 Descending Boston Center
Sun 01:52:00 PM 43.6333 -70.3000 101° East  Level FlightAware Approximate
Sun 01:52:45 PM 43.6492 -70.3619 39° Northeast 141 162 800  Level Boston Center
Sun 01:54:00 PM 43.6456 -70.3086 101° East  Level Estimated
Sun 02:01:00 PM 43.6456 -70.3086 101° East  Level Estimated
Sun 02:02:00 PM 43.6456 -70.3086 101° East  Level Estimated
Sun 02:03:00 PM 43.6456 -70.3086 101° East  Level Estimated

Login

Don't have an account? Register now (free) for customized features, flight alerts, and more!